createdAt,value
2022-10-30T02:28:28.079Z,51.60
2022-10-30T02:46:37.693Z,54.90
2022-10-30T02:49:11.475Z,46.77
2022-10-30T02:51:43.154Z,48.00
2022-10-30T02:54:13.015Z,50.27
2022-10-30T02:56:49.772Z,48.00
2022-10-30T02:59:17.849Z,53.80
2022-10-30T03:01:47.054Z,51.10
2022-10-30T03:04:21.496Z,58.27
2022-10-30T03:06:51.376Z,52.27
2022-10-30T03:09:26.411Z,55.30
2022-10-30T03:11:57.576Z,45.87
2022-10-30T03:14:26.781Z,54.50
2022-10-30T03:16:55.188Z,56.10
2022-10-30T03:19:25.282Z,52.50
2022-10-30T03:21:58.182Z,54.97
2022-10-30T03:24:27.899Z,45.93
2022-10-30T03:26:56.724Z,49.33
2022-10-30T03:29:36.812Z,42.43
2022-10-30T03:32:13.324Z,47.37
2022-10-30T03:34:41.941Z,40.70
2022-10-30T03:37:11.148Z,48.63
2022-10-30T03:39:42.040Z,50.07
2022-10-30T03:42:12.656Z,51.13
2022-10-30T03:44:46.440Z,57.57
2022-10-30T03:47:19.294Z,47.13
2022-10-30T03:49:49.461Z,49.23
2022-10-30T03:52:18.167Z,47.90
2022-10-30T03:54:46.777Z,45.30
2022-10-30T03:57:25.678Z,52.17
2022-10-30T03:59:55.213Z,44.33
2022-10-30T04:02:26.200Z,44.80
2022-10-30T04:04:55.985Z,48.67
2022-10-30T04:07:26.622Z,38.40
2022-10-30T04:09:56.256Z,45.20
2022-10-30T04:12:25.150Z,53.03
2022-10-30T04:14:56.266Z,43.57
2022-10-30T04:17:26.202Z,57.03
2022-10-30T04:19:58.100Z,47.97
2022-10-30T04:22:27.213Z,50.00
2022-10-30T04:24:57.404Z,47.43
2022-10-30T04:27:27.593Z,44.13
2022-10-30T04:30:01.863Z,43.87
2022-10-30T04:32:32.878Z,41.57
2022-10-30T04:35:02.713Z,44.03
2022-10-30T04:37:32.850Z,44.77
2022-10-30T04:40:03.170Z,46.27
2022-10-30T04:42:31.525Z,52.80
2022-10-30T04:44:59.816Z,44.53
2022-10-30T04:47:27.856Z,52.43
2022-10-30T04:49:58.020Z,45.70
2022-10-30T04:52:29.176Z,55.60
2022-10-30T04:54:58.473Z,47.37
2022-10-30T04:57:30.893Z,44.63
2022-10-30T05:00:05.866Z,43.87
2022-10-30T05:02:38.738Z,50.53
2022-10-30T05:05:07.956Z,46.17
2022-10-30T05:07:38.817Z,49.77
2022-10-30T05:10:14.144Z,51.50
2022-10-30T05:12:45.290Z,42.97
2022-10-30T05:15:19.906Z,44.70
2022-10-30T05:18:04.934Z,51.53
2022-10-30T05:20:42.971Z,42.77
2022-10-30T05:23:16.277Z,45.63
2022-10-30T05:25:47.799Z,46.83
2022-10-30T05:46:14.992Z,41.20
2022-10-30T05:48:56.635Z,47.10
2022-10-30T05:51:35.268Z,40.60
2022-10-30T05:56:49.649Z,41.70
2022-10-30T05:59:20.215Z,37.83
2022-10-30T06:01:52.982Z,42.73
2022-10-30T06:27:54.808Z,38.87
2022-10-30T06:30:36.121Z,40.53
2022-10-30T06:33:07.944Z,43.60
2022-10-30T06:35:39.252Z,36.43
2022-10-30T06:38:11.837Z,39.53
2022-10-30T06:40:40.537Z,37.47
2022-10-30T06:43:09.115Z,44.27
2022-10-30T06:45:38.632Z,40.17
2022-10-30T06:48:12.508Z,43.90
2022-10-30T06:50:46.984Z,35.13
2022-10-30T06:53:23.476Z,41.67
2022-10-30T06:56:09.609Z,43.63
2022-10-30T06:58:41.722Z,37.17
2022-10-30T07:01:16.228Z,39.63
2022-10-30T07:03:46.027Z,36.87
2022-10-30T07:06:18.509Z,37.60
2022-10-30T07:08:57.021Z,37.90
2022-10-30T07:11:29.770Z,36.97
2022-10-30T07:14:01.237Z,33.07
2022-10-30T07:16:34.743Z,35.47
2022-10-30T07:19:14.363Z,36.77
2022-10-30T07:21:50.009Z,38.30
2022-10-30T07:24:21.904Z,33.50
2022-10-30T07:27:02.436Z,32.53
2022-10-30T07:29:45.169Z,34.37
2022-10-30T07:32:15.943Z,36.30
2022-10-30T07:34:47.383Z,38.60
2022-10-30T07:37:16.676Z,32.27
2022-10-30T07:39:48.114Z,31.80
2022-10-30T08:04:00.462Z,28.27
2022-10-30T08:06:53.648Z,26.00
2022-10-30T08:09:27.278Z,29.30
2022-10-30T08:14:37.859Z,25.83
2022-10-30T08:17:13.112Z,28.30
2022-10-30T08:19:45.009Z,23.27
2022-10-30T09:12:25.868Z,29.07
2022-10-30T09:14:54.199Z,38.30
2022-10-30T09:17:30.616Z,28.40
2022-10-30T09:20:04.023Z,25.73
2022-10-30T09:22:33.717Z,26.70
2022-10-30T09:25:02.205Z,28.23
2022-10-30T09:27:30.358Z,28.30
2022-10-30T09:29:59.610Z,29.17
2022-10-30T09:32:33.347Z,24.20
2022-10-30T09:35:04.436Z,29.33
2022-10-30T09:37:42.352Z,36.93
2022-10-30T09:40:19.811Z,23.30
2022-10-30T09:42:55.750Z,30.93
2022-10-30T09:45:50.550Z,33.27
2022-10-30T09:48:43.977Z,36.50
2022-10-30T09:51:27.988Z,32.60
2022-10-30T09:54:23.016Z,26.93
2022-10-30T09:57:10.763Z,25.53
2022-10-30T10:00:11.339Z,27.37
2022-10-30T10:03:15.910Z,30.50
2022-10-30T10:05:57.108Z,29.83
2022-10-30T10:08:38.424Z,30.97
2022-10-30T10:11:22.515Z,24.87
2022-10-30T10:14:22.607Z,23.37
2022-10-30T10:19:57.044Z,33.93
2022-10-30T15:37:00.090Z,25.23
2022-10-30T23:26:08.715Z,37.87
2022-10-30T23:28:35.878Z,25.77
2022-10-30T23:31:10.954Z,43.10
2022-10-30T23:33:38.266Z,33.60
2022-10-30T23:36:06.026Z,33.00
2022-10-30T23:38:33.558Z,30.03
2022-10-30T23:41:01.674Z,35.63
2022-10-30T23:43:29.260Z,32.57
2022-10-30T23:45:56.484Z,35.13
2022-10-30T23:48:23.874Z,33.67
2022-10-30T23:50:51.309Z,33.77
2022-10-30T23:53:18.597Z,29.30
2022-10-30T23:55:55.583Z,33.37
2022-10-30T23:58:22.944Z,34.77
